Observation data for Slaton on 03/11/2018      Previous  Date  Next       Current Mesonet Observations  Soil Data  Daily Summary Page  Observations in Plain Language
KSLS 110600Z 36012G18KT 16/M05 A2991 RMK A01 T01611047  RH  024%=      5-min Rain = 0
KSLS 110605Z 01011G16KT 16/M04 A2991 RMK A01 T01611044  RH  024%=      5-min Rain = 0
KSLS 110610Z 02011G16KT 16/M04 A2991 RMK A01 T01591039  RH  026%=      5-min Rain = 0
KSLS 110615Z 01012G18KT 16/M03 A2992 RMK A01 T01591032  RH  027%=      5-min Rain = 0
KSLS 110620Z 00013G20KT 16/M04 A2993 RMK A01 T01601037  RH  026%=      5-min Rain = 0
KSLS 110625Z 00014G20KT 16/M04 A2993 RMK A01 T01601040  RH  025%=      5-min Rain = 0
KSLS 110630Z 00013G23KT 16/M03 A2994 RMK A01 T01581032  RH  027%=      5-min Rain = 0
KSLS 110635Z 02017G26KT 16/M01 A2994 RMK A01 T01571008  RH  033%=      5-min Rain = 0
KSLS 110640Z 02019G28KT 16/02 A2994 RMK A01 T01550020  RH  041%=      5-min Rain = 0
KSLS 110645Z 02017G24KT 15/03 A2995 RMK A01 T01540034  RH  045%=      5-min Rain = 0
KSLS 110650Z 02015G23KT 15/05 A2995 RMK A01 T01520045  RH  049%=      5-min Rain = 0
KSLS 110655Z 02016G27KT 15/06 A2996 RMK A01 T01510055  RH  053%=      5-min Rain = 0
KSLS 110700Z 03021G31KT 15/05 A2996 RMK A01 T01510052  RH  052%=      5-min Rain = 0
KSLS 110705Z 03020G28KT 15/04 A2996 RMK A01 T01490037  RH  048%=      5-min Rain = 0
KSLS 110710Z 03019G27KT 15/03 A2997 RMK A01 T01480027  RH  045%=      5-min Rain = 0
KSLS 110715Z 03020G31KT 15/01 A2998 RMK A01 T01460014  RH  041%=      5-min Rain = 0
KSLS 110720Z 02022G34KT 14/M01 A2998 RMK A01 T01431011  RH  035%=      5-min Rain = 0
KSLS 110725Z 01021G29KT 14/M03 A2999 RMK A01 T01401025  RH  032%=      5-min Rain = 0
KSLS 110730Z 02022G31KT 14/M04 A2999 RMK A01 T01371035  RH  030%=      5-min Rain = 0
KSLS 110735Z 01021G30KT 14/M04 A2999 RMK A01 T01351041  RH  029%=      5-min Rain = 0
KSLS 110740Z 02022G31KT 13/M04 A2999 RMK A01 T01341044  RH  029%=      5-min Rain = 0
KSLS 110745Z 02022G33KT 13/M05 A2999 RMK A01 T01331045  RH  029%=      5-min Rain = 0
KSLS 110750Z 02023G32KT 13/M05 A30 RMK A01 T01321046  RH  029%=      5-min Rain = 0
KSLS 110755Z 02023G31KT 13/M05 A30 RMK A01 T01321047  RH  029%=      5-min Rain = 0
KSLS 110800Z 02022G29KT 13/M05 A30 RMK A01 T01321049  RH  028%=      5-min Rain = 0
KSLS 110805Z 02020G28KT 13/M05 A3001 RMK A01 T01321052  RH  028%=      5-min Rain = 0
KSLS 110810Z 02024G33KT 13/M06 A3001 RMK A01 T01311055  RH  027%=      5-min Rain = 0
KSLS 110815Z 02025G40KT 13/M06 A3001 RMK A01 T01301056  RH  027%=      5-min Rain = 0
KSLS 110820Z 02024G35KT 13/M06 A30 RMK A01 T01291056  RH  027%=      5-min Rain = 0
KSLS 110825Z 02022G35KT 13/M06 A3001 RMK A01 T01271055  RH  028%=      5-min Rain = 0
KSLS 110830Z 02023G31KT 13/M05 A30 RMK A01 T01261054  RH  028%=      5-min Rain = 0
KSLS 110835Z 02026G39KT 13/M05 A30 RMK A01 T01251053  RH  029%=      5-min Rain = 0
KSLS 110840Z 02025G32KT 12/M05 A30 RMK A01 T01241052  RH  029%=      5-min Rain = 0
KSLS 110845Z 02025G33KT 12/M05 A3001 RMK A01 T01221050  RH  030%=      5-min Rain = 0
KSLS 110850Z 02022G32KT 12/M05 A3001 RMK A01 T01211049  RH  030%=      5-min Rain = 0
KSLS 110855Z 02020G30KT 12/M05 A3002 RMK A01 T01201049  RH  031%=      5-min Rain = 0
KSLS 110900Z 02022G37KT 12/M05 A3001 RMK A01 T01191048  RH  031%=      5-min Rain = 0
KSLS 110905Z 02022G34KT 12/M05 A3002 RMK A01 T01181046  RH  032%=      5-min Rain = 0
KSLS 110910Z 02024G34KT 12/M05 A3002 RMK A01 T01171045  RH  032%=      5-min Rain = 0
KSLS 110915Z 02022G31KT 12/M04 A3002 RMK A01 T01161043  RH  033%=      5-min Rain = 0
KSLS 110920Z 02020G31KT 12/M04 A3003 RMK A01 T01151042  RH  033%=      5-min Rain = 0
KSLS 110925Z 02023G34KT 11/M04 A3003 RMK A01 T01141041  RH  034%=      5-min Rain = 0
KSLS 110930Z 02022G33KT 11/M04 A3003 RMK A01 T01141041  RH  034%=      5-min Rain = 0
KSLS 110935Z 02022G33KT 11/M04 A3003 RMK A01 T01141041  RH  034%=      5-min Rain = 0
KSLS 110940Z 03020G29KT 11/M04 A3003 RMK A01 T01141041  RH  034%=      5-min Rain = 0
KSLS 110945Z 03021G29KT 11/M04 A3003 RMK A01 T01141042  RH  034%=      5-min Rain = 0
KSLS 110950Z 02020G31KT 12/M04 A3003 RMK A01 T01151044  RH  033%=      5-min Rain = 0
KSLS 110955Z 02021G29KT 11/M05 A3004 RMK A01 T01141045  RH  033%=      5-min Rain = 0
KSLS 111000Z 02020G31KT 11/M05 A3004 RMK A01 T01141046  RH  033%=      5-min Rain = 0
KSLS 111005Z 02018G28KT 11/M05 A3004 RMK A01 T01131046  RH  033%=      5-min Rain = 0
KSLS 111010Z 02018G29KT 11/M05 A3004 RMK A01 T01121046  RH  033%=      5-min Rain = 0
KSLS 111015Z 02017G29KT 11/M05 A3004 RMK A01 T01111046  RH  033%=      5-min Rain = 0
KSLS 111020Z 02016G25KT 11/M05 A3005 RMK A01 T01101046  RH  034%=      5-min Rain = 0
KSLS 111025Z 02018G24KT 11/M05 A3005 RMK A01 T01101046  RH  033%=      5-min Rain = 0
KSLS 111030Z 02016G22KT 11/M05 A3005 RMK A01 T01091047  RH  033%=      5-min Rain = 0
KSLS 111035Z 01018G25KT 11/M05 A3005 RMK A01 T01091048  RH  033%=      5-min Rain = 0
KSLS 111040Z 02020G27KT 11/M05 A3006 RMK A01 T01091051  RH  033%=      5-min Rain = 0
KSLS 111045Z 02018G28KT 11/M05 A3006 RMK A01 T01081054  RH  032%=      5-min Rain = 0
KSLS 111050Z 02018G31KT 11/M06 A3006 RMK A01 T01081056  RH  032%=      5-min Rain = 0
KSLS 111055Z 02018G26KT 11/M06 A3006 RMK A01 T01081059  RH  031%=      5-min Rain = 0
KSLS 111100Z 02020G33KT 11/M06 A3006 RMK A01 T01071060  RH  031%=      5-min Rain = 0
KSLS 111105Z 02017G27KT 11/M06 A3007 RMK A01 T01071060  RH  031%=      5-min Rain = 0
KSLS 111110Z 02019G29KT 11/M06 A3007 RMK A01 T01071059  RH  031%=      5-min Rain = 0
KSLS 111115Z 02022G33KT 11/M06 A3007 RMK A01 T01061058  RH  031%=      5-min Rain = 0
KSLS 111120Z 02020G29KT 11/M06 A3008 RMK A01 T01061056  RH  032%=      5-min Rain = 0
KSLS 111125Z 02020G31KT 11/M05 A3008 RMK A01 T01051052  RH  033%=      5-min Rain = 0
KSLS 111130Z 03020G28KT 10/M05 A3008 RMK A01 T01031049  RH  034%=      5-min Rain = 0
KSLS 111135Z 02018G28KT 10/M05 A3009 RMK A01 T01021048  RH  035%=      5-min Rain = 0
KSLS 111140Z 03021G31KT 10/M05 A3009 RMK A01 T01021051  RH  034%=      5-min Rain = 0
KSLS 111145Z 03020G29KT 10/M05 A301 RMK A01 T01011051  RH  034%=      5-min Rain = 0
KSLS 111150Z 03015G27KT 10/M05 A301 RMK A01 T01001051  RH  034%=      5-min Rain = 0
KSLS 111155Z 03017G29KT 10/M05 A301 RMK A01 T00991052  RH  034%=      5-min Rain = 0
KSLS 111200Z 02019G27KT 10/M05 A3011 RMK A01 T00981053  RH  034%=      5-min Rain = 0
KSLS 111205Z 03019G31KT 10/M05 A3011 RMK A01 T00981054  RH  034%=      5-min Rain = 0
KSLS 111210Z 03020G32KT 10/M05 A3011 RMK A01 T00971053  RH  035%=      5-min Rain = 0
KSLS 111215Z 03019G27KT 10/M05 A3012 RMK A01 T00961052  RH  035%=      5-min Rain = 0
KSLS 111220Z 03016G25KT 10/M05 A3012 RMK A01 T00951052  RH  035%=      5-min Rain = 0
KSLS 111225Z 03018G31KT 10/M05 A3013 RMK A01 T00951051  RH  036%=      5-min Rain = 0
KSLS 111230Z 03016G24KT 09/M05 A3013 RMK A01 T00941051  RH  036%=      5-min Rain = 0
KSLS 111235Z 02016G26KT 09/M05 A3013 RMK A01 T00931051  RH  036%=      5-min Rain = 0
KSLS 111240Z 03017G26KT 09/M05 A3013 RMK A01 T00921051  RH  036%=      5-min Rain = 0
KSLS 111245Z 02017G28KT 09/M05 A3014 RMK A01 T00911051  RH  037%=      5-min Rain = 0
KSLS 111250Z 02016G25KT 09/M05 A3014 RMK A01 T00901048  RH  038%=      5-min Rain = 0
KSLS 111255Z 03016G24KT 09/M05 A3015 RMK A01 T00881047  RH  038%=      5-min Rain = 0
KSLS 111300Z 03014G20KT 09/M05 A3015 RMK A01 T00871046  RH  039%=      5-min Rain = 0
KSLS 111305Z 02012G20KT 09/M05 A3016 RMK A01 T00861045  RH  040%=      5-min Rain = 0
KSLS 111310Z 01009G16KT 08/M05 A3017 RMK A01 T00841045  RH  040%=      5-min Rain = 0
KSLS 111315Z 01013G20KT 08/M05 A3017 RMK A01 T00831048  RH  039%=      5-min Rain = 0
KSLS 111320Z 01015G24KT 08/M05 A3018 RMK A01 T00821050  RH  039%=      5-min Rain = 0
KSLS 111325Z 01013G20KT 08/M05 A3018 RMK A01 T00811051  RH  039%=      5-min Rain = 0
KSLS 111330Z 01012G18KT 08/M05 A3018 RMK A01 T00801052  RH  039%=      5-min Rain = 0
KSLS 111335Z 00012G19KT 08/M06 A3019 RMK A01 T00801056  RH  038%=      5-min Rain = 0
KSLS 111340Z 01011G21KT 08/M06 A302 RMK A01 T00791060  RH  037%=      5-min Rain = 0
KSLS 111345Z 01010G15KT 08/M06 A302 RMK A01 T00781064  RH  036%=      5-min Rain = 0
KSLS 111350Z 01015G21KT 08/M07 A3021 RMK A01 T00771069  RH  035%=      5-min Rain = 0
KSLS 111355Z 01013G18KT 08/M07 A3021 RMK A01 T00771070  RH  035%=      5-min Rain = 0
KSLS 111400Z 01014G22KT 08/M07 A3021 RMK A01 T00761071  RH  035%=      5-min Rain = 0
KSLS 111405Z 01016G23KT 08/M07 A3021 RMK A01 T00771072  RH  034%=      5-min Rain = 0
KSLS 111410Z 02017G24KT 08/M08 A3021 RMK A01 T00761075  RH  034%=      5-min Rain = 0
KSLS 111415Z 02015G22KT 08/M08 A3021 RMK A01 T00761075  RH  034%=      5-min Rain = 0
KSLS 111420Z 01012G18KT 08/M08 A3022 RMK A01 T00771075  RH  034%=      5-min Rain = 0
KSLS 111425Z 00013G19KT 08/M08 A3022 RMK A01 T00781075  RH  033%=      5-min Rain = 0
KSLS 111430Z 01014G19KT 08/M08 A3023 RMK A01 T00771076  RH  033%=      5-min Rain = 0
KSLS 111435Z 01015G21KT 08/M08 A3023 RMK A01 T00781076  RH  033%=      5-min Rain = 0
KSLS 111440Z 01014G20KT 08/M08 A3023 RMK A01 T00781078  RH  033%=      5-min Rain = 0
KSLS 111445Z 01012KT 08/M08 A3023 RMK A01 T00791078  RH  032%=      5-min Rain = 0
KSLS 111450Z 01016G21KT 08/M08 A3023 RMK A01 T00791079  RH  032%=      5-min Rain = 0
KSLS 111455Z 02014G22KT 08/M08 A3023 RMK A01 T00801080  RH  032%=      5-min Rain = 0
KSLS 111500Z 02015G21KT 08/M08 A3023 RMK A01 T00801083  RH  031%=      5-min Rain = 0
KSLS 111505Z 02016G22KT 08/M09 A3024 RMK A01 T00801086  RH  030%=      5-min Rain = 0
KSLS 111510Z 01013G19KT 08/M09 A3025 RMK A01 T00831087  RH  030%=      5-min Rain = 0
KSLS 111515Z 01015G22KT 08/M09 A3025 RMK A01 T00841088  RH  029%=      5-min Rain = 0
KSLS 111520Z 02019G25KT 08/M09 A3025 RMK A01 T00831091  RH  028%=      5-min Rain = 0
KSLS 111525Z 01019G27KT 08/M09 A3025 RMK A01 T00811092  RH  029%=      5-min Rain = 0
KSLS 111530Z 02018G26KT 08/M09 A3025 RMK A01 T00831092  RH  028%=      5-min Rain = 0
KSLS 111535Z 02017G24KT 08/M09 A3025 RMK A01 T00841093  RH  028%=      5-min Rain = 0
KSLS 111540Z 02017G24KT 08/M09 A3025 RMK A01 T00841093  RH  028%=      5-min Rain = 0
KSLS 111545Z 03016G24KT 08/M09 A3026 RMK A01 T00821092  RH  028%=      5-min Rain = 0
KSLS 111550Z 02014G21KT 09/M09 A3026 RMK A01 T00851091  RH  028%=      5-min Rain = 0
KSLS 111555Z 02016G22KT 09/M09 A3027 RMK A01 T00851093  RH  028%=      5-min Rain = 0
KSLS 111600Z 01014G20KT 09/M09 A3027 RMK A01 T00861089  RH  028%=      5-min Rain = 0
KSLS 111605Z 01014G19KT 09/M09 A3027 RMK A01 T00861089  RH  028%=      5-min Rain = 0
KSLS 111610Z 01016G24KT 09/M09 A3027 RMK A01 T00851087  RH  029%=      5-min Rain = 0
KSLS 111615Z 01019G26KT 08/M09 A3027 RMK A01 T00821088  RH  029%=      5-min Rain = 0
KSLS 111620Z 01016G21KT 08/M09 A3027 RMK A01 T00841085  RH  030%=      5-min Rain = 0
KSLS 111625Z 01016G22KT 09/M09 A3027 RMK A01 T00851087  RH  029%=      5-min Rain = 0
KSLS 111630Z 01015G20KT 09/M09 A3028 RMK A01 T00871086  RH  029%=      5-min Rain = 0
KSLS 111635Z 01016G23KT 09/M09 A3028 RMK A01 T00861090  RH  028%=      5-min Rain = 0
KSLS 111640Z 02016G22KT 09/M09 A3028 RMK A01 T00871090  RH  028%=      5-min Rain = 0
KSLS 111645Z 01014G20KT 09/M08 A3028 RMK A01 T00901084  RH  029%=      5-min Rain = 0
KSLS 111650Z 00016G21KT 09/M08 A3028 RMK A01 T00891083  RH  029%=      5-min Rain = 0
KSLS 111655Z 01016G22KT 09/M09 A3029 RMK A01 T00871087  RH  028%=      5-min Rain = 0
KSLS 111700Z 02016G24KT 09/M09 A3029 RMK A01 T00861090  RH  028%=      5-min Rain = 0
KSLS 111705Z 02015G22KT 08/M09 A3029 RMK A01 T00841092  RH  028%=      5-min Rain = 0
KSLS 111710Z 03015G20KT 09/M09 A3029 RMK A01 T00851089  RH  029%=      5-min Rain = 0
KSLS 111715Z 03015G20KT 09/M09 A3029 RMK A01 T00871088  RH  028%=      5-min Rain = 0
KSLS 111720Z 01011G18KT 09/M08 A3029 RMK A01 T00891083  RH  029%=      5-min Rain = 0
KSLS 111725Z 01014G19KT 09/M08 A3029 RMK A01 T00911083  RH  029%=      5-min Rain = 0
KSLS 111730Z 02014G20KT 09/M08 A3029 RMK A01 T00901083  RH  029%=      5-min Rain = 0
KSLS 111735Z 00013G19KT 09/M08 A3029 RMK A01 T00911082  RH  029%=      5-min Rain = 0
KSLS 111740Z 00013G19KT 09/M08 A3029 RMK A01 T00921084  RH  028%=      5-min Rain = 0
KSLS 111745Z 01012G18KT 09/M09 A3029 RMK A01 T00941085  RH  028%=      5-min Rain = 0
KSLS 111750Z 02014G19KT 09/M09 A3029 RMK A01 T00941090  RH  027%=      5-min Rain = 0
KSLS 111755Z 01014G19KT 10/M09 A3029 RMK A01 T00951090  RH  026%=      5-min Rain = 0
KSLS 111800Z 00015G21KT 10/M09 A3029 RMK A01 T00971093  RH  026%=      5-min Rain = 0
KSLS 111805Z 01013G21KT 10/M09 A3029 RMK A01 T01011093  RH  025%=      5-min Rain = 0
KSLS 111810Z 00014G20KT 10/M09 A3029 RMK A01 T01011094  RH  025%=      5-min Rain = 0
KSLS 111815Z 01015G20KT 10/M10 A3029 RMK A01 T01021095  RH  024%=      5-min Rain = 0
KSLS 111820Z 01013G20KT 11/M09 A3029 RMK A01 T01061092  RH  024%=      5-min Rain = 0
KSLS 111825Z 01013G19KT 11/M09 A3029 RMK A01 T01071094  RH  024%=      5-min Rain = 0
KSLS 111830Z 00015G21KT 11/M09 A3029 RMK A01 T01101093  RH  023%=      5-min Rain = 0
KSLS 111835Z 01014G20KT 11/M10 A3029 RMK A01 T01121095  RH  023%=      5-min Rain = 0
KSLS 111840Z 01013G19KT 12/M10 A3029 RMK A01 T01161096  RH  022%=      5-min Rain = 0
KSLS 111845Z 02012G20KT 12/M10 A3029 RMK A01 T01171096  RH  022%=      5-min Rain = 0
KSLS 111850Z 36014G20KT 12/M10 A3029 RMK A01 T01171097  RH  022%=      5-min Rain = 0
KSLS 111855Z 36013G20KT 12/M10 A3028 RMK A01 T01161097  RH  022%=      5-min Rain = 0
KSLS 111900Z 02011G20KT 12/M09 A3028 RMK A01 T01181094  RH  022%=      5-min Rain = 0
KSLS 111905Z 36014G21KT 12/M10 A3028 RMK A01 T01211096  RH  021%=      5-min Rain = 0
KSLS 111910Z 01012G20KT 12/M10 A3028 RMK A01 T01171098  RH  021%=      5-min Rain = 0
KSLS 111915Z 00012G20KT 12/M10 A3028 RMK A01 T01161098  RH  022%=      5-min Rain = 0
KSLS 111920Z 00015G22KT 12/M10 A3028 RMK A01 T01171100  RH  021%=      5-min Rain = 0
KSLS 111925Z 01011G18KT 12/M10 A3027 RMK A01 T01181098  RH  021%=      5-min Rain = 0
KSLS 111930Z 36012KT 12/M10 A3027 RMK A01 T01221097  RH  021%=      5-min Rain = 0
KSLS 111935Z 01011G18KT 12/M10 A3027 RMK A01 T01211099  RH  021%=      5-min Rain = 0
KSLS 111940Z 03013KT 12/M10 A3027 RMK A01 T01171101  RH  021%=      5-min Rain = 0
KSLS 111945Z 01010G15KT 12/M10 A3027 RMK A01 T01161101  RH  021%=      5-min Rain = 0
KSLS 111950Z 35013G19KT 12/M10 A3027 RMK A01 T01191101  RH  021%=      5-min Rain = 0
KSLS 111955Z 36014G21KT 12/M10 A3027 RMK A01 T01221101  RH  020%=      5-min Rain = 0
KSLS 112000Z 00012G18KT 12/M10 A3027 RMK A01 T01191101  RH  021%=      5-min Rain = 0
KSLS 112005Z 35012G19KT 12/M10 A3027 RMK A01 T01241100  RH  020%=      5-min Rain = 0
KSLS 112010Z 00012G19KT 13/M10 A3027 RMK A01 T01271101  RH  020%=      5-min Rain = 0
KSLS 112015Z 00015G20KT 13/M10 A3027 RMK A01 T01261101  RH  020%=      5-min Rain = 0
KSLS 112020Z 01013G22KT 12/M10 A3027 RMK A01 T01211101  RH  020%=      5-min Rain = 0
KSLS 112025Z 36015KT 12/M10 A3027 RMK A01 T01211101  RH  020%=      5-min Rain = 0
KSLS 112030Z 00012G17KT 12/M10 A3026 RMK A01 T01221100  RH  020%=      5-min Rain = 0
KSLS 112035Z 01011G16KT 12/M10 A3026 RMK A01 T01231100  RH  020%=      5-min Rain = 0
KSLS 112040Z 02012G21KT 12/M10 A3026 RMK A01 T01241099  RH  020%=      5-min Rain = 0
KSLS 112045Z 00016KT 12/M10 A3026 RMK A01 T01241100  RH  020%=      5-min Rain = 0
KSLS 112050Z 01011G18KT 13/M10 A3026 RMK A01 T01251099  RH  020%=      5-min Rain = 0
KSLS 112055Z 02013G19KT 13/M10 A3025 RMK A01 T01301099  RH  020%=      5-min Rain = 0
KSLS 112100Z 02012G17KT 13/M10 A3025 RMK A01 T01281099  RH  020%=      5-min Rain = 0
KSLS 112105Z 00012G18KT 13/M10 A3025 RMK A01 T01291099  RH  020%=      5-min Rain = 0
KSLS 112110Z 35013KT 13/M10 A3025 RMK A01 T01301102  RH  019%=      5-min Rain = 0
KSLS 112115Z 35011G17KT 13/M10 A3025 RMK A01 T01301103  RH  019%=      5-min Rain = 0
KSLS 112120Z 00013KT 13/M10 A3025 RMK A01 T01281104  RH  019%=      5-min Rain = 0
KSLS 112125Z 35014G19KT 13/M11 A3025 RMK A01 T01301105  RH  019%=      5-min Rain = 0
KSLS 112130Z 36012G19KT 13/M11 A3025 RMK A01 T01321107  RH  018%=      5-min Rain = 0
KSLS 112135Z 35011G18KT 13/M11 A3025 RMK A01 T01321108  RH  018%=      5-min Rain = 0
KSLS 112140Z 35012G17KT 13/M11 A3024 RMK A01 T01321108  RH  018%=      5-min Rain = 0
KSLS 112145Z 00013G20KT 13/M11 A3024 RMK A01 T01321111  RH  018%=      5-min Rain = 0
KSLS 112150Z 36013KT 13/M11 A3024 RMK A01 T01331110  RH  017%=      5-min Rain = 0
KSLS 112155Z 36011G20KT 14/M11 A3024 RMK A01 T01351110  RH  017%=      5-min Rain = 0
KSLS 112200Z 35011G18KT 14/M11 A3024 RMK A01 T01381111  RH  017%=      5-min Rain = 0
KSLS 112205Z 00013G18KT 14/M11 A3024 RMK A01 T01371112  RH  017%=      5-min Rain = 0
KSLS 112210Z 00012G20KT 14/M11 A3024 RMK A01 T01371113  RH  017%=      5-min Rain = 0
KSLS 112215Z 01014G20KT 14/M12 A3024 RMK A01 T01391117  RH  016%=      5-min Rain = 0
KSLS 112220Z 01013G19KT 14/M12 A3024 RMK A01 T01361117  RH  016%=      5-min Rain = 0
KSLS 112225Z 36014G19KT 14/M12 A3024 RMK A01 T01361120  RH  016%=      5-min Rain = 0
KSLS 112230Z 00013KT 13/M12 A3024 RMK A01 T01331119  RH  016%=      5-min Rain = 0
KSLS 112235Z 35012KT 13/M12 A3024 RMK A01 T01311118  RH  017%=      5-min Rain = 0
KSLS 112240Z 35009KT 13/M12 A3024 RMK A01 T01321116  RH  017%=      5-min Rain = 0
KSLS 112245Z 34011G18KT 13/M12 A3024 RMK A01 T01331117  RH  017%=      5-min Rain = 0
KSLS 112250Z 35010KT 13/M12 A3024 RMK A01 T01311117  RH  017%=      5-min Rain = 0
KSLS 112255Z 00008KT 13/M12 A3025 RMK A01 T01321116  RH  017%=      5-min Rain = 0
KSLS 112300Z 35010KT 13/M12 A3024 RMK A01 T01321116  RH  017%=      5-min Rain = 0
KSLS 112305Z 01009KT 14/M12 A3024 RMK A01 T01351117  RH  016%=      5-min Rain = 0
KSLS 112310Z 00010G17KT 14/M12 A3024 RMK A01 T01381124  RH  015%=      5-min Rain = 0
KSLS 112315Z 36012G18KT 14/M13 A3024 RMK A01 T01381129  RH  015%=      5-min Rain = 0
KSLS 112320Z 36013G19KT 14/M13 A3025 RMK A01 T01371134  RH  014%=      5-min Rain = 0
KSLS 112325Z 00012KT 14/M14 A3025 RMK A01 T01371136  RH  014%=      5-min Rain = 0
KSLS 112330Z 35014KT 14/M14 A3025 RMK A01 T01371138  RH  014%=      5-min Rain = 0
KSLS 112335Z 36012G17KT 14/M14 A3025 RMK A01 T01361138  RH  014%=      5-min Rain = 0
KSLS 112340Z 35013KT 14/M14 A3025 RMK A01 T01351141  RH  014%=      5-min Rain = 0
KSLS 112345Z 00013KT 13/M14 A3025 RMK A01 T01331144  RH  013%=      5-min Rain = 0
KSLS 112350Z 01010G15KT 14/M14 A3025 RMK A01 T01351144  RH  013%=      5-min Rain = 0
KSLS 112355Z 36013KT 13/M15 A3025 RMK A01 T01321145  RH  013%=      5-min Rain = 0
KSLS 120000Z 01010G15KT 13/M15 A3025 RMK A01 T01301146  RH  013%=      5-min Rain = 0
KSLS 120005Z 00011G16KT 13/M15 A3025 RMK A01 T01301146  RH  013%=      5-min Rain = 0
KSLS 120010Z 01010G15KT 13/M15 A3025 RMK A01 T01281145  RH  014%=      5-min Rain = 0
KSLS 120015Z 01011G16KT 13/M15 A3025 RMK A01 T01271146  RH  014%=      5-min Rain = 0
KSLS 120020Z 01010G16KT 13/M15 A3025 RMK A01 T01261149  RH  013%=      5-min Rain = 0
KSLS 120025Z 01010G15KT 13/M15 A3026 RMK A01 T01251149  RH  014%=      5-min Rain = 0
KSLS 120030Z 01009KT 12/M15 A3026 RMK A01 T01231149  RH  014%=      5-min Rain = 0
KSLS 120035Z 01008KT 12/M15 A3026 RMK A01 T01221150  RH  014%=      5-min Rain = 0
KSLS 120040Z 01009KT 12/M15 A3026 RMK A01 T01201152  RH  014%=      5-min Rain = 0
KSLS 120045Z 00011G17KT 12/M16 A3027 RMK A01 T01181157  RH  013%=      5-min Rain = 0
KSLS 120050Z 01009G14KT 12/M16 A3027 RMK A01 T01171159  RH  013%=      5-min Rain = 0
KSLS 120055Z 01009KT 11/M16 A3027 RMK A01 T01141160  RH  013%=      5-min Rain = 0
KSLS 120100Z 01008KT 11/M16 A3027 RMK A01 T01121161  RH  013%=      5-min Rain = 0
KSLS 120105Z 01008KT 11/M16 A3028 RMK A01 T01101161  RH  014%=      5-min Rain = 0
KSLS 120110Z 01007KT 11/M16 A3028 RMK A01 T01071161  RH  014%=      5-min Rain = 0
KSLS 120115Z 01006KT 11/M16 A3028 RMK A01 T01061161  RH  014%=      5-min Rain = 0
KSLS 120120Z 01007KT 10/M16 A3028 RMK A01 T01041161  RH  014%=      5-min Rain = 0
KSLS 120125Z 01007KT 10/M16 A3029 RMK A01 T01041161  RH  014%=      5-min Rain = 0
KSLS 120130Z 01007KT 10/M16 A3029 RMK A01 T01031162  RH  014%=      5-min Rain = 0
KSLS 120135Z 00007KT 10/M16 A3029 RMK A01 T01011163  RH  014%=      5-min Rain = 0
KSLS 120140Z 01006KT 10/M16 A3029 RMK A01 T01011164  RH  014%=      5-min Rain = 0
KSLS 120145Z 01006KT 10/M17 A3029 RMK A01 T01001166  RH  014%=      5-min Rain = 0
KSLS 120150Z 02006KT 10/M17 A303 RMK A01 T00981167  RH  014%=      5-min Rain = 0
KSLS 120155Z 02005KT 10/M17 A303 RMK A01 T00971168  RH  014%=      5-min Rain = 0
KSLS 120200Z 02005KT 10/M17 A303 RMK A01 T00951170  RH  014%=      5-min Rain = 0
KSLS 120205Z 02005KT 09/M17 A303 RMK A01 T00931171  RH  014%=      5-min Rain = 0
KSLS 120210Z 04004KT 09/M17 A303 RMK A01 T00891173  RH  014%=      5-min Rain = 0
KSLS 120215Z 03005KT 09/M17 A3031 RMK A01 T00861173  RH  014%=      5-min Rain = 0
KSLS 120220Z 03004KT 09/M17 A3031 RMK A01 T00851173  RH  014%=      5-min Rain = 0
KSLS 120225Z 03004KT 08/M17 A3031 RMK A01 T00841174  RH  014%=      5-min Rain = 0
KSLS 120230Z 03004KT 08/M17 A3031 RMK A01 T00831174  RH  015%=      5-min Rain = 0
KSLS 120235Z 02004KT 08/M17 A3031 RMK A01 T00821174  RH  015%=      5-min Rain = 0
KSLS 120240Z 03004KT 08/M18 A3032 RMK A01 T00811175  RH  015%=      5-min Rain = 0
KSLS 120245Z 01004KT 08/M18 A3032 RMK A01 T00801176  RH  015%=      5-min Rain = 0
KSLS 120250Z 02004KT 08/M18 A3032 RMK A01 T00781176  RH  015%=      5-min Rain = 0
KSLS 120255Z 03004KT 08/M18 A3032 RMK A01 T00771177  RH  015%=      5-min Rain = 0
KSLS 120300Z 02004KT 08/M18 A3032 RMK A01 T00761177  RH  015%=      5-min Rain = 0
KSLS 120305Z 02003KT 08/M18 A3032 RMK A01 T00751178  RH  015%=      5-min Rain = 0
KSLS 120310Z 03003KT 08/M18 A3033 RMK A01 T00751178  RH  015%=      5-min Rain = 0
KSLS 120315Z 02004KT 08/M18 A3033 RMK A01 T00761178  RH  015%=      5-min Rain = 0
KSLS 120320Z 03004KT 08/M18 A3033 RMK A01 T00751179  RH  015%=      5-min Rain = 0
KSLS 120325Z 02003KT 07/M18 A3033 RMK A01 T00721180  RH  015%=      5-min Rain = 0
KSLS 120330Z 01003KT 07/M18 A3033 RMK A01 T00711181  RH  015%=      5-min Rain = 0
KSLS 120335Z 01004KT 07/M18 A3033 RMK A01 T00701181  RH  015%=      5-min Rain = 0
KSLS 120340Z 01004KT 07/M18 A3033 RMK A01 T00691181  RH  015%=      5-min Rain = 0
KSLS 120345Z 01004KT 07/M18 A3034 RMK A01 T00691181  RH  015%=      5-min Rain = 0
KSLS 120350Z 01004KT 07/M18 A3034 RMK A01 T00681181  RH  015%=      5-min Rain = 0
KSLS 120355Z 02004KT 07/M18 A3034 RMK A01 T00671182  RH  015%=      5-min Rain = 0
KSLS 120400Z 01005KT 07/M18 A3034 RMK A01 T00651183  RH  015%=      5-min Rain = 0
KSLS 120405Z 02005KT 07/M18 A3034 RMK A01 T00651182  RH  015%=      5-min Rain = 0
KSLS 120410Z 02005KT 07/M18 A3034 RMK A01 T00651182  RH  015%=      5-min Rain = 0
KSLS 120415Z 02005KT 06/M18 A3034 RMK A01 T00641181  RH  016%=      5-min Rain = 0
KSLS 120420Z 02005KT 07/M18 A3034 RMK A01 T00651180  RH  016%=      5-min Rain = 0
KSLS 120425Z 02005KT 07/M18 A3034 RMK A01 T00651176  RH  016%=      5-min Rain = 0
KSLS 120430Z 03005KT 07/M17 A3034 RMK A01 T00651173  RH  017%=      5-min Rain = 0
KSLS 120435Z 02004KT 06/M17 A3034 RMK A01 T00641172  RH  017%=      5-min Rain = 0
KSLS 120440Z 03004KT 06/M17 A3034 RMK A01 T00641172  RH  017%=      5-min Rain = 0
KSLS 120445Z 03004KT 06/M17 A3034 RMK A01 T00631170  RH  017%=      5-min Rain = 0
KSLS 120450Z 03005KT 06/M17 A3035 RMK A01 T00631166  RH  018%=      5-min Rain = 0
KSLS 120455Z 04005KT 06/M17 A3035 RMK A01 T00611167  RH  018%=      5-min Rain = 0

Page generated in 0.0299 seconds.